sensor_id;sensor_type;location;lat;lon;timestamp;pressure;altitude;pressure_sealevel;temperature;humidity
76598;BME280;65486;53.144;18.134;2024-03-23T00:51:12;100163.05;;;7.89;97.98
76598;BME280;65486;53.144;18.134;2024-03-23T00:53:39;100160.73;;;7.85;97.84
76598;BME280;65486;53.144;18.134;2024-03-23T00:56:06;100158.36;;;7.82;98.14
76598;BME280;65486;53.144;18.134;2024-03-23T00:58:33;100153.54;;;7.79;98.43
76598;BME280;65486;53.144;18.134;2024-03-23T01:01:02;100155.62;;;7.76;98.46
76598;BME280;65486;53.144;18.134;2024-03-23T01:03:31;100148.59;;;7.71;98.46
76598;BME280;65486;53.144;18.134;2024-03-23T01:06:00;100149.63;;;7.67;98.38
76598;BME280;65486;53.144;18.134;2024-03-23T01:08:27;100154.19;;;7.65;98.59
76598;BME280;65486;53.144;18.134;2024-03-23T01:10:59;100153.48;;;7.63;98.91
76598;BME280;65486;53.144;18.134;2024-03-23T01:13:27;100151.04;;;7.61;99.11
76598;BME280;65486;53.144;18.134;2024-03-23T01:15:56;100153.59;;;7.59;99.20
76598;BME280;65486;53.144;18.134;2024-03-23T01:18:25;100154.83;;;7.58;99.51
76598;BME280;65486;53.144;18.134;2024-03-23T01:20:58;100156.86;;;7.57;99.80
76598;BME280;65486;53.144;18.134;2024-03-23T01:23:26;100159.52;;;7.57;99.93
76598;BME280;65486;53.144;18.134;2024-03-23T01:25:54;100163.86;;;7.59;99.88
76598;BME280;65486;53.144;18.134;2024-03-23T01:28:24;100162.66;;;7.59;99.89
76598;BME280;65486;53.144;18.134;2024-03-23T01:30:53;100160.42;;;7.60;100.00
76598;BME280;65486;53.144;18.134;2024-03-23T01:33:20;100156.41;;;7.61;100.00
76598;BME280;65486;53.144;18.134;2024-03-23T01:35:47;100156.33;;;7.62;100.00
76598;BME280;65486;53.144;18.134;2024-03-23T01:38:22;100151.72;;;7.62;100.00
76598;BME280;65486;53.144;18.134;2024-03-23T01:40:49;100145.86;;;7.61;100.00
76598;BME280;65486;53.144;18.134;2024-03-23T01:43:17;100152.94;;;7.60;100.00
76598;BME280;65486;53.144;18.134;2024-03-23T01:45:45;100144.29;;;7.60;100.00
76598;BME280;65486;53.144;18.134;2024-03-23T01:48:12;100143.45;;;7.62;100.00
76598;BME280;65486;53.144;18.134;2024-03-23T01:50:39;100148.98;;;7.63;100.00
76598;BME280;65486;53.144;18.134;2024-03-23T01:53:05;100147.73;;;7.64;100.00
76598;BME280;65486;53.144;18.134;2024-03-23T01:55:33;100143.25;;;7.64;100.00
76598;BME280;65486;53.144;18.134;2024-03-23T01:58:00;100147.65;;;7.63;100.00
76598;BME280;65486;53.144;18.134;2024-03-23T02:00:27;100145.80;;;7.61;100.00
76598;BME280;65486;53.144;18.134;2024-03-23T02:02:54;100145.69;;;7.59;100.00
76598;BME280;65486;53.144;18.134;2024-03-23T02:05:23;100145.50;;;7.58;100.00
76598;BME280;65486;53.144;18.134;2024-03-23T02:07:50;100144.32;;;7.57;100.00
76598;BME280;65486;53.144;18.134;2024-03-23T02:10:18;100144.27;;;7.58;100.00
76598;BME280;65486;53.144;18.134;2024-03-23T02:12:47;100149.17;;;7.58;100.00
76598;BME280;65486;53.144;18.134;2024-03-23T02:15:13;100141.35;;;7.59;100.00
76598;BME280;65486;53.144;18.134;2024-03-23T02:17:40;100136.90;;;7.59;100.00
76598;BME280;65486;53.144;18.134;2024-03-23T02:20:07;100132.71;;;7.57;100.00
76598;BME280;65486;53.144;18.134;2024-03-23T02:22:39;100130.60;;;7.55;100.00
76598;BME280;65486;53.144;18.134;2024-03-23T02:25:06;100126.07;;;7.52;100.00
76598;BME280;65486;53.144;18.134;2024-03-23T02:27:33;100127.24;;;7.50;100.00
76598;BME280;65486;53.144;18.134;2024-03-23T02:30:08;100123.33;;;7.50;100.00
76598;BME280;65486;53.144;18.134;2024-03-23T02:32:36;100123.98;;;7.47;100.00
76598;BME280;65486;53.144;18.134;2024-03-23T02:35:03;100120.10;;;7.45;100.00
76598;BME280;65486;53.144;18.134;2024-03-23T02:37:35;100116.14;;;7.44;100.00
76598;BME280;65486;53.144;18.134;2024-03-23T02:40:03;100112.37;;;7.42;100.00
76598;BME280;65486;53.144;18.134;2024-03-23T02:42:30;100107.63;;;7.39;100.00
76598;BME280;65486;53.144;18.134;2024-03-23T02:44:58;100103.61;;;7.37;100.00
76598;BME280;65486;53.144;18.134;2024-03-23T02:47:26;100102.64;;;7.35;100.00
76598;BME280;65486;53.144;18.134;2024-03-23T02:49:53;100103.52;;;7.32;100.00
76598;BME280;65486;53.144;18.134;2024-03-23T02:52:22;100096.00;;;7.31;100.00
76598;BME280;65486;53.144;18.134;2024-03-23T02:54:49;100094.73;;;7.30;100.00
76598;BME280;65486;53.144;18.134;2024-03-23T02:57:18;100091.63;;;7.27;100.00
76598;BME280;65486;53.144;18.134;2024-03-23T02:59:46;100086.23;;;7.25;100.00
76598;BME280;65486;53.144;18.134;2024-03-23T03:02:14;100081.72;;;7.25;100.00
76598;BME280;65486;53.144;18.134;2024-03-23T03:04:41;100080.87;;;7.24;100.00
76598;BME280;65486;53.144;18.134;2024-03-23T03:07:08;100072.12;;;7.23;100.00
76598;BME280;65486;53.144;18.134;2024-03-23T03:09:34;100070.44;;;7.22;100.00
76598;BME280;65486;53.144;18.134;2024-03-23T03:12:03;100049.42;;;7.14;100.00
76598;BME280;65486;53.144;18.134;2024-03-23T03:14:30;100052.85;;;7.21;100.00
76598;BME280;65486;53.144;18.134;2024-03-23T03:16:58;100058.25;;;7.20;100.00
76598;BME280;65486;53.144;18.134;2024-03-23T03:19:27;100061.48;;;7.19;100.00
76598;BME280;65486;53.144;18.134;2024-03-23T03:21:53;100058.88;;;7.20;100.00
76598;BME280;65486;53.144;18.134;2024-03-23T03:24:21;100048.84;;;7.21;100.00
76598;BME280;65486;53.144;18.134;2024-03-23T03:26:48;100044.03;;;7.22;100.00
76598;BME280;65486;53.144;18.134;2024-03-23T03:29:16;100046.89;;;7.23;100.00
76598;BME280;65486;53.144;18.134;2024-03-23T03:31:43;100050.35;;;7.22;100.00
76598;BME280;65486;53.144;18.134;2024-03-23T03:34:10;100047.70;;;7.21;100.00
76598;BME280;65486;53.144;18.134;2024-03-23T03:36:37;100041.45;;;7.21;100.00
76598;BME280;65486;53.144;18.134;2024-03-23T03:39:04;100038.30;;;7.22;100.00
76598;BME280;65486;53.144;18.134;2024-03-23T03:41:31;100043.27;;;7.21;100.00
76598;BME280;65486;53.144;18.134;2024-03-23T03:44:00;100038.16;;;7.21;100.00
76598;BME280;65486;53.144;18.134;2024-03-23T03:46:29;100041.15;;;7.22;100.00
76598;BME280;65486;53.144;18.134;2024-03-23T03:48:56;100042.16;;;7.22;100.00
76598;BME280;65486;53.144;18.134;2024-03-23T03:51:24;100040.61;;;7.22;100.00
76598;BME280;65486;53.144;18.134;2024-03-23T03:53:54;100038.08;;;7.22;100.00
76598;BME280;65486;53.144;18.134;2024-03-23T03:56:22;100037.62;;;7.21;100.00
76598;BME280;65486;53.144;18.134;2024-03-23T03:58:49;100042.30;;;7.21;100.00
76598;BME280;65486;53.144;18.134;2024-03-23T04:01:16;100037.19;;;7.20;100.00
76598;BME280;65486;53.144;18.134;2024-03-23T04:03:44;100034.11;;;7.20;100.00
76598;BME280;65486;53.144;18.134;2024-03-23T04:06:11;100035.38;;;7.22;100.00
76598;BME280;65486;53.144;18.134;2024-03-23T04:08:38;100037.45;;;7.21;100.00
76598;BME280;65486;53.144;18.134;2024-03-23T04:11:06;100033.56;;;7.20;100.00
76598;BME280;65486;53.144;18.134;2024-03-23T04:13:32;100038.08;;;7.19;100.00
76598;BME280;65486;53.144;18.134;2024-03-23T04:16:01;100041.59;;;7.19;100.00
76598;BME280;65486;53.144;18.134;2024-03-23T04:18:29;100038.08;;;7.19;100.00
76598;BME280;65486;53.144;18.134;2024-03-23T04:20:56;100030.48;;;7.20;100.00
76598;BME280;65486;53.144;18.134;2024-03-23T04:23:23;100021.08;;;7.19;100.00
76598;BME280;65486;53.144;18.134;2024-03-23T04:25:50;100019.71;;;7.18;100.00
76598;BME280;65486;53.144;18.134;2024-03-23T04:28:18;100017.52;;;7.15;100.00
76598;BME280;65486;53.144;18.134;2024-03-23T04:30:47;100025.08;;;7.13;100.00
76598;BME280;65486;53.144;18.134;2024-03-23T04:33:14;100022.95;;;7.12;100.00
76598;BME280;65486;53.144;18.134;2024-03-23T04:35:43;100024.60;;;7.10;100.00
76598;BME280;65486;53.144;18.134;2024-03-23T04:38:12;100017.71;;;7.10;100.00
76598;BME280;65486;53.144;18.134;2024-03-23T04:40:39;100011.02;;;7.08;100.00
76598;BME280;65486;53.144;18.134;2024-03-23T04:43:06;100014.34;;;7.07;100.00
76598;BME280;65486;53.144;18.134;2024-03-23T04:45:33;100016.21;;;7.08;100.00
76598;BME280;65486;53.144;18.134;2024-03-23T04:48:03;100016.50;;;7.08;100.00
76598;BME280;65486;53.144;18.134;2024-03-23T04:50:31;100013.97;;;7.09;100.00
76598;BME280;65486;53.144;18.134;2024-03-23T04:52:57;100016.61;;;7.08;100.00
76598;BME280;65486;53.144;18.134;2024-03-23T04:55:24;100003.34;;;6.96;100.00
76598;BME280;65486;53.144;18.134;2024-03-23T04:57:51;100023.16;;;7.07;100.00
76598;BME280;65486;53.144;18.134;2024-03-23T05:00:19;100019.56;;;7.07;100.00
76598;BME280;65486;53.144;18.134;2024-03-23T05:02:46;100014.62;;;7.06;100.00
76598;BME280;65486;53.144;18.134;2024-03-23T05:05:12;100017.40;;;7.06;100.00
76598;BME280;65486;53.144;18.134;2024-03-23T05:07:44;100017.58;;;7.04;100.00
76598;BME280;65486;53.144;18.134;2024-03-23T05:10:12;100007.79;;;7.04;100.00
76598;BME280;65486;53.144;18.134;2024-03-23T05:12:41;99997.84;;;7.03;100.00
76598;BME280;65486;53.144;18.134;2024-03-23T05:15:12;99995.59;;;7.03;100.00
76598;BME280;65486;53.144;18.134;2024-03-23T05:17:38;99994.26;;;7.03;100.00
76598;BME280;65486;53.144;18.134;2024-03-23T05:20:07;99987.11;;;7.00;100.00
76598;BME280;65486;53.144;18.134;2024-03-23T05:22:39;99984.37;;;6.99;100.00
76598;BME280;65486;53.144;18.134;2024-03-23T05:25:10;99980.91;;;6.99;100.00
76598;BME280;65486;53.144;18.134;2024-03-23T05:27:38;99968.42;;;6.98;100.00
76598;BME280;65486;53.144;18.134;2024-03-23T05:30:05;99972.77;;;6.98;100.00
76598;BME280;65486;53.144;18.134;2024-03-23T05:32:32;99973.23;;;6.99;100.00
76598;BME280;65486;53.144;18.134;2024-03-23T05:35:01;99975.39;;;6.99;100.00
76598;BME280;65486;53.144;18.134;2024-03-23T05:37:31;99974.29;;;7.01;100.00
76598;BME280;65486;53.144;18.134;2024-03-23T05:40:02;99969.37;;;7.04;100.00
76598;BME280;65486;53.144;18.134;2024-03-23T05:42:30;99968.77;;;7.07;100.00
76598;BME280;65486;53.144;18.134;2024-03-23T05:44:57;99968.16;;;7.09;100.00
76598;BME280;65486;53.144;18.134;2024-03-23T05:47:24;99966.60;;;7.09;100.00
76598;BME280;65486;53.144;18.134;2024-03-23T05:49:53;99964.78;;;7.09;100.00
76598;BME280;65486;53.144;18.134;2024-03-23T05:52:20;99964.33;;;7.10;100.00
76598;BME280;65486;53.144;18.134;2024-03-23T05:54:51;99957.27;;;7.11;100.00
76598;BME280;65486;53.144;18.134;2024-03-23T05:57:20;99946.02;;;7.11;100.00
76598;BME280;65486;53.144;18.134;2024-03-23T05:59:47;99923.36;;;7.11;100.00
76598;BME280;65486;53.144;18.134;2024-03-23T06:02:15;99909.27;;;7.13;100.00
76598;BME280;65486;53.144;18.134;2024-03-23T06:04:45;99904.60;;;7.21;100.00
76598;BME280;65486;53.144;18.134;2024-03-23T06:07:12;99902.38;;;7.36;100.00
76598;BME280;65486;53.144;18.134;2024-03-23T06:09:42;99889.48;;;7.59;100.00
76598;BME280;65486;53.144;18.134;2024-03-23T06:12:10;99878.94;;;7.75;100.00
76598;BME280;65486;53.144;18.134;2024-03-23T06:14:38;99880.48;;;7.82;100.00
76598;BME280;65486;53.144;18.134;2024-03-23T06:17:05;99898.58;;;7.88;100.00
76598;BME280;65486;53.144;18.134;2024-03-23T06:19:32;99918.55;;;7.89;100.00
76598;BME280;65486;53.144;18.134;2024-03-23T06:21:59;99921.38;;;7.87;100.00
76598;BME280;65486;53.144;18.134;2024-03-23T06:24:26;99911.21;;;7.79;100.00
76598;BME280;65486;53.144;18.134;2024-03-23T06:26:55;99920.24;;;7.84;100.00
76598;BME280;65486;53.144;18.134;2024-03-23T06:29:26;99930.10;;;7.78;99.85
76598;BME280;65486;53.144;18.134;2024-03-23T06:31:54;99933.32;;;7.70;99.87
76598;BME280;65486;53.144;18.134;2024-03-23T06:34:23;99931.41;;;7.66;100.00
76598;BME280;65486;53.144;18.134;2024-03-23T06:36:55;99928.76;;;7.62;100.00
76598;BME280;65486;53.144;18.134;2024-03-23T06:39:25;99920.54;;;7.56;100.00
76598;BME280;65486;53.144;18.134;2024-03-23T06:41:53;99914.16;;;7.50;100.00
76598;BME280;65486;53.144;18.134;2024-03-23T06:44:25;99912.95;;;7.45;100.00
76598;BME280;65486;53.144;18.134;2024-03-23T06:46:52;99919.22;;;7.41;100.00
76598;BME280;65486;53.144;18.134;2024-03-23T06:49:20;99915.86;;;7.38;100.00
76598;BME280;65486;53.144;18.134;2024-03-23T06:51:47;99910.52;;;7.35;100.00
76598;BME280;65486;53.144;18.134;2024-03-23T06:54:16;99914.22;;;7.33;100.00
76598;BME280;65486;53.144;18.134;2024-03-23T06:56:46;99915.30;;;7.29;100.00
76598;BME280;65486;53.144;18.134;2024-03-23T06:59:15;99914.28;;;7.30;100.00
76598;BME280;65486;53.144;18.134;2024-03-23T07:01:42;99913.38;;;7.28;100.00
76598;BME280;65486;53.144;18.134;2024-03-23T07:04:10;99908.19;;;7.27;100.00
76598;BME280;65486;53.144;18.134;2024-03-23T07:06:44;99911.44;;;7.28;100.00
76598;BME280;65486;53.144;18.134;2024-03-23T07:09:14;99909.29;;;7.26;99.99
76598;BME280;65486;53.144;18.134;2024-03-23T07:11:46;99904.48;;;7.25;100.00
76598;BME280;65486;53.144;18.134;2024-03-23T07:14:16;99905.03;;;7.24;99.89
76598;BME280;65486;53.144;18.134;2024-03-23T07:16:43;99902.41;;;7.22;100.00
76598;BME280;65486;53.144;18.134;2024-03-23T07:19:11;99902.96;;;7.21;99.70
76598;BME280;65486;53.144;18.134;2024-03-23T07:21:39;99902.13;;;7.20;99.72
76598;BME280;65486;53.144;18.134;2024-03-23T07:24:06;99899.08;;;7.21;99.89
76598;BME280;65486;53.144;18.134;2024-03-23T07:26:33;99904.19;;;7.20;99.56
76598;BME280;65486;53.144;18.134;2024-03-23T07:29:00;99908.32;;;7.19;99.94
76598;BME280;65486;53.144;18.134;2024-03-23T07:31:28;99909.13;;;7.19;100.00
76598;BME280;65486;53.144;18.134;2024-03-23T07:33:57;99909.67;;;7.20;100.00
76598;BME280;65486;53.144;18.134;2024-03-23T07:36:25;99901.74;;;7.19;100.00
76598;BME280;65486;53.144;18.134;2024-03-23T07:38:52;99895.23;;;7.17;100.00
76598;BME280;65486;53.144;18.134;2024-03-23T07:41:23;99895.07;;;7.16;100.00
76598;BME280;65486;53.144;18.134;2024-03-23T07:43:54;99883.77;;;7.16;100.00
76598;BME280;65486;53.144;18.134;2024-03-23T07:46:21;99883.16;;;7.18;100.00
76598;BME280;65486;53.144;18.134;2024-03-23T07:48:49;99883.27;;;7.21;100.00
76598;BME280;65486;53.144;18.134;2024-03-23T07:51:23;99880.43;;;7.22;100.00
76598;BME280;65486;53.144;18.134;2024-03-23T07:53:51;99881.95;;;7.24;100.00
76598;BME280;65486;53.144;18.134;2024-03-23T07:56:19;99883.05;;;7.27;100.00
76598;BME280;65486;53.144;18.134;2024-03-23T07:58:47;99885.51;;;7.29;100.00
76598;BME280;65486;53.144;18.134;2024-03-23T08:01:16;99881.23;;;7.31;100.00
76598;BME280;65486;53.144;18.134;2024-03-23T08:03:46;99881.20;;;7.31;100.00
76598;BME280;65486;53.144;18.134;2024-03-23T08:06:19;99869.89;;;7.32;99.97
76598;BME280;65486;53.144;18.134;2024-03-23T08:08:48;99863.26;;;7.34;99.70
76598;BME280;65486;53.144;18.134;2024-03-23T08:11:15;99861.92;;;7.35;99.55
76598;BME280;65486;53.144;18.134;2024-03-23T08:13:45;99867.41;;;7.35;99.58
76598;BME280;65486;53.144;18.134;2024-03-23T08:16:12;99864.58;;;7.36;99.60
76598;BME280;65486;53.144;18.134;2024-03-23T08:18:42;99858.58;;;7.36;99.69
76598;BME280;65486;53.144;18.134;2024-03-23T08:21:12;99847.61;;;7.37;99.72
76598;BME280;65486;53.144;18.134;2024-03-23T08:24:04;99845.08;;;7.38;99.87
76598;BME280;65486;53.144;18.134;2024-03-23T08:26:46;99843.83;;;7.39;99.71
76598;BME280;65486;53.144;18.134;2024-03-23T08:29:12;99839.09;;;7.40;99.43
76598;BME280;65486;53.144;18.134;2024-03-23T08:31:40;99832.27;;;7.38;98.71
76598;BME280;65486;53.144;18.134;2024-03-23T08:34:10;99830.56;;;7.36;98.57
76598;BME280;65486;53.144;18.134;2024-03-23T08:36:37;99826.64;;;7.35;98.78
76598;BME280;65486;53.144;18.134;2024-03-23T08:39:04;99815.97;;;7.39;98.91
76598;BME280;65486;53.144;18.134;2024-03-23T08:41:31;99812.67;;;7.45;98.64
76598;BME280;65486;53.144;18.134;2024-03-23T08:43:57;99817.73;;;7.50;99.31
76598;BME280;65486;53.144;18.134;2024-03-23T08:46:25;99820.16;;;7.53;99.08
76598;BME280;65486;53.144;18.134;2024-03-23T08:48:51;99809.48;;;7.54;98.57
76598;BME280;65486;53.144;18.134;2024-03-23T08:51:19;99800.89;;;7.54;98.64
76598;BME280;65486;53.144;18.134;2024-03-23T08:53:55;99807.32;;;7.58;98.80
76598;BME280;65486;53.144;18.134;2024-03-23T08:56:31;99816.15;;;7.59;98.41
76598;BME280;65486;53.144;18.134;2024-03-23T08:58:58;99816.92;;;7.55;97.78
76598;BME280;65486;53.144;18.134;2024-03-23T09:01:25;99821.09;;;7.52;97.97
76598;BME280;65486;53.144;18.134;2024-03-23T09:03:54;99816.54;;;7.47;97.65
76598;BME280;65486;53.144;18.134;2024-03-23T09:06:22;99815.78;;;7.38;97.84
76598;BME280;65486;53.144;18.134;2024-03-23T09:08:50;99814.35;;;7.33;98.11
76598;BME280;65486;53.144;18.134;2024-03-23T09:11:19;99806.52;;;7.32;98.34
76598;BME280;65486;53.144;18.134;2024-03-23T09:13:48;99794.62;;;7.33;98.22
76598;BME280;65486;53.144;18.134;2024-03-23T09:16:37;99782.16;;;7.38;98.07
76598;BME280;65486;53.144;18.134;2024-03-23T09:19:06;99771.05;;;7.46;98.01
76598;BME280;65486;53.144;18.134;2024-03-23T09:21:43;99771.99;;;7.53;97.74
76598;BME280;65486;53.144;18.134;2024-03-23T09:25:09;99760.63;;;7.50;97.43
76598;BME280;65486;53.144;18.134;2024-03-23T09:27:39;99768.98;;;7.61;97.53
76598;BME280;65486;53.144;18.134;2024-03-23T09:30:10;99772.11;;;7.62;97.29
76598;BME280;65486;53.144;18.134;2024-03-23T09:32:39;99773.05;;;7.59;97.23
76598;BME280;65486;53.144;18.134;2024-03-23T09:35:08;99770.71;;;7.55;97.41
76598;BME280;65486;53.144;18.134;2024-03-23T09:37:40;99769.27;;;7.52;97.46
76598;BME280;65486;53.144;18.134;2024-03-23T09:43:18;99754.95;;;7.40;97.07
76598;BME280;65486;53.144;18.134;2024-03-23T09:45:48;99745.90;;;7.35;96.96
76598;BME280;65486;53.144;18.134;2024-03-23T09:48:15;99742.29;;;7.24;96.30
76598;BME280;65486;53.144;18.134;2024-03-23T09:50:51;99738.09;;;7.18;96.48
76598;BME280;65486;53.144;18.134;2024-03-23T09:53:21;99740.87;;;7.19;96.42
76598;BME280;65486;53.144;18.134;2024-03-23T09:55:53;99739.85;;;7.20;96.20
76598;BME280;65486;53.144;18.134;2024-03-23T09:58:23;99729.77;;;7.17;96.62
76598;BME280;65486;53.144;18.134;2024-03-23T10:00:50;99727.75;;;7.19;96.91
76598;BME280;65486;53.144;18.134;2024-03-23T10:03:19;99732.46;;;7.17;96.68
76598;BME280;65486;53.144;18.134;2024-03-23T10:05:46;99734.22;;;7.14;96.80
76598;BME280;65486;53.144;18.134;2024-03-23T10:08:17;99719.86;;;6.98;95.49
76598;BME280;65486;53.144;18.134;2024-03-23T10:10:45;99730.19;;;6.94;95.66
76598;BME280;65486;53.144;18.134;2024-03-23T10:13:28;99734.40;;;6.85;95.80
76598;BME280;65486;53.144;18.134;2024-03-23T10:15:59;99737.35;;;6.81;96.50
76598;BME280;65486;53.144;18.134;2024-03-23T10:18:29;99725.02;;;6.82;96.84
76598;BME280;65486;53.144;18.134;2024-03-23T10:21:08;99729.55;;;6.81;96.20
76598;BME280;65486;53.144;18.134;2024-03-23T10:23:45;99729.91;;;6.77;95.91
76598;BME280;65486;53.144;18.134;2024-03-23T10:26:23;99723.97;;;6.76;95.64
76598;BME280;65486;53.144;18.134;2024-03-23T10:28:57;99724.58;;;6.76;95.66
76598;BME280;65486;53.144;18.134;2024-03-23T10:31:35;99728.79;;;6.76;95.68
76598;BME280;65486;53.144;18.134;2024-03-23T10:34:03;99721.39;;;6.78;95.60
76598;BME280;65486;53.144;18.134;2024-03-23T10:36:30;99716.52;;;6.81;95.48
76598;BME280;65486;53.144;18.134;2024-03-23T10:38:58;99712.98;;;6.84;95.32
76598;BME280;65486;53.144;18.134;2024-03-23T10:41:28;99708.98;;;6.85;94.77
76598;BME280;65486;53.144;18.134;2024-03-23T10:43:58;99704.98;;;6.88;94.81
76598;BME280;65486;53.144;18.134;2024-03-23T10:46:26;99699.99;;;6.91;95.08
76598;BME280;65486;53.144;18.134;2024-03-23T10:48:56;99699.64;;;6.92;94.47
76598;BME280;65486;53.144;18.134;2024-03-23T10:51:24;99698.40;;;6.89;92.91
76598;BME280;65486;53.144;18.134;2024-03-23T10:53:56;99693.16;;;6.86;93.21
76598;BME280;65486;53.144;18.134;2024-03-23T10:56:23;99691.61;;;6.84;93.19
76598;BME280;65486;53.144;18.134;2024-03-23T10:58:51;99682.96;;;6.85;93.42
76598;BME280;65486;53.144;18.134;2024-03-23T11:01:20;99675.09;;;6.89;92.86
76598;BME280;65486;53.144;18.134;2024-03-23T11:03:47;99662.22;;;6.94;92.84
76598;BME280;65486;53.144;18.134;2024-03-23T11:06:34;99663.67;;;7.04;92.72
76598;BME280;65486;53.144;18.134;2024-03-23T11:09:01;99660.68;;;7.12;92.93
76598;BME280;65486;53.144;18.134;2024-03-23T11:11:28;99649.84;;;7.15;92.06
76598;BME280;65486;53.144;18.134;2024-03-23T11:13:59;99644.75;;;7.18;92.44
76598;BME280;65486;53.144;18.134;2024-03-23T11:16:28;99642.88;;;7.23;91.88
76598;BME280;65486;53.144;18.134;2024-03-23T11:22:02;99624.27;;;7.31;91.82
76598;BME280;65486;53.144;18.134;2024-03-23T11:24:29;99618.66;;;7.34;90.81
76598;BME280;65486;53.144;18.134;2024-03-23T11:27:01;99626.72;;;7.27;89.74
76598;BME280;65486;53.144;18.134;2024-03-23T11:29:30;99625.26;;;7.19;90.53
76598;BME280;65486;53.144;18.134;2024-03-23T11:31:57;99617.82;;;7.17;90.70
76598;BME280;65486;53.144;18.134;2024-03-23T11:34:25;99615.34;;;7.23;91.18
76598;BME280;65486;53.144;18.134;2024-03-23T11:37:04;99614.98;;;7.27;91.39
76598;BME280;65486;53.144;18.134;2024-03-23T11:39:33;99616.39;;;7.26;90.47
76598;BME280;65486;53.144;18.134;2024-03-23T11:42:02;99617.13;;;7.22;90.76
76598;BME280;65486;53.144;18.134;2024-03-23T11:44:34;99613.59;;;7.21;90.47
76598;BME280;65486;53.144;18.134;2024-03-23T11:47:08;99607.80;;;7.18;90.34
76598;BME280;65486;53.144;18.134;2024-03-23T11:49:41;99606.23;;;7.16;90.68
76598;BME280;65486;53.144;18.134;2024-03-23T11:52:08;99602.48;;;7.16;90.69
76598;BME280;65486;53.144;18.134;2024-03-23T11:54:35;99601.51;;;7.13;90.76
76598;BME280;65486;53.144;18.134;2024-03-23T11:57:04;99603.44;;;7.10;91.03
76598;BME280;65486;53.144;18.134;2024-03-23T11:59:39;99596.08;;;7.04;90.89
76598;BME280;65486;53.144;18.134;2024-03-23T12:10:05;99578.80;;;6.76;92.20
76598;BME280;65486;53.144;18.134;2024-03-23T12:12:35;99578.32;;;6.71;92.41
76598;BME280;65486;53.144;18.134;2024-03-23T12:15:06;99569.36;;;6.69;92.76
76598;BME280;65486;53.144;18.134;2024-03-23T12:17:35;99556.09;;;6.68;92.89
76598;BME280;65486;53.144;18.134;2024-03-23T12:20:02;99549.88;;;6.67;93.08
76598;BME280;65486;53.144;18.134;2024-03-23T12:22:29;99549.17;;;6.66;93.23
76598;BME280;65486;53.144;18.134;2024-03-23T12:24:56;99542.95;;;6.63;93.02
76598;BME280;65486;53.144;18.134;2024-03-23T12:27:23;99542.20;;;6.62;93.52
76598;BME280;65486;53.144;18.134;2024-03-23T12:29:49;99542.84;;;6.62;93.47
76598;BME280;65486;53.144;18.134;2024-03-23T12:32:18;99550.12;;;6.61;94.47
76598;BME280;65486;53.144;18.134;2024-03-23T12:39:16;99561.29;;;6.52;94.70
76598;BME280;65486;53.144;18.134;2024-03-23T12:41:43;99550.87;;;6.50;95.00
76598;BME280;65486;53.144;18.134;2024-03-23T12:44:12;99533.77;;;6.48;95.21
76598;BME280;65486;53.144;18.134;2024-03-23T12:46:40;99510.71;;;6.45;95.29
76598;BME280;65486;53.144;18.134;2024-03-23T12:53:37;99538.48;;;6.36;96.08
76598;BME280;65486;53.144;18.134;2024-03-23T12:56:04;99530.35;;;6.33;95.72
76598;BME280;65486;53.144;18.134;2024-03-23T12:58:31;99523.72;;;6.30;95.58
76598;BME280;65486;53.144;18.134;2024-03-23T13:00:58;99522.11;;;6.26;95.39
76598;BME280;65486;53.144;18.134;2024-03-23T13:07:53;99479.59;;;6.09;95.55
76598;BME280;65486;53.144;18.134;2024-03-23T13:10:19;99471.52;;;6.07;95.81
76598;BME280;65486;53.144;18.134;2024-03-23T13:12:46;99454.61;;;6.05;95.67
76598;BME280;65486;53.144;18.134;2024-03-23T13:15:13;99440.19;;;6.04;95.89
76598;BME280;65486;53.144;18.134;2024-03-23T13:22:11;99443.45;;;6.01;95.57
76598;BME280;65486;53.144;18.134;2024-03-23T13:24:38;99452.32;;;5.94;93.93
76598;BME280;65486;53.144;18.134;2024-03-23T13:27:05;99464.73;;;5.88;93.86
76598;BME280;65486;53.144;18.134;2024-03-23T13:29:34;99476.39;;;5.83;94.19
76598;BME280;65486;53.144;18.134;2024-03-23T13:32:02;99486.22;;;5.79;94.19
76598;BME280;65486;53.144;18.134;2024-03-23T13:34:29;99482.33;;;5.76;94.27
76598;BME280;65486;53.144;18.134;2024-03-23T13:36:56;99484.25;;;5.73;94.39
76598;BME280;65486;53.144;18.134;2024-03-23T13:39:25;99491.85;;;5.70;94.44
76598;BME280;65486;53.144;18.134;2024-03-23T13:41:55;99487.63;;;5.68;94.86
76598;BME280;65486;53.144;18.134;2024-03-23T13:44:22;99484.48;;;5.67;95.06
76598;BME280;65486;53.144;18.134;2024-03-23T13:46:51;99482.58;;;5.67;95.38
76598;BME280;65486;53.144;18.134;2024-03-23T13:49:28;99488.05;;;5.66;95.34
76598;BME280;65486;53.144;18.134;2024-03-23T13:51:56;99487.55;;;5.61;94.91
76598;BME280;65486;53.144;18.134;2024-03-23T13:54:27;99481.28;;;5.60;95.37
76598;BME280;65486;53.144;18.134;2024-03-23T13:56:58;99479.23;;;5.59;95.50
76598;BME280;65486;53.144;18.134;2024-03-23T13:59:25;99483.16;;;5.57;95.59
76598;BME280;65486;53.144;18.134;2024-03-23T14:01:51;99479.92;;;5.51;95.09
76598;BME280;65486;53.144;18.134;2024-03-23T14:04:18;99489.09;;;5.46;95.06
76598;BME280;65486;53.144;18.134;2024-03-23T14:06:47;99501.24;;;5.45;95.33
76598;BME280;65486;53.144;18.134;2024-03-23T14:09:14;99508.73;;;5.44;95.39
76598;BME280;65486;53.144;18.134;2024-03-23T14:11:47;99515.02;;;5.43;95.75
76598;BME280;65486;53.144;18.134;2024-03-23T14:14:14;99519.18;;;5.44;96.08
76598;BME280;65486;53.144;18.134;2024-03-23T14:16:44;99522.48;;;5.45;96.35
76598;BME280;65486;53.144;18.134;2024-03-23T14:19:11;99521.77;;;5.46;96.34
76598;BME280;65486;53.144;18.134;2024-03-23T14:21:38;99524.63;;;5.48;96.45
76598;BME280;65486;53.144;18.134;2024-03-23T14:24:05;99540.84;;;5.50;96.35